Pagrindinis puslapis
METAR-TAF:

METAR-TAF

Oro uostai :

Jonšiopingas, Švedija

platuma: 57-46N, ilguma: 014-05E, Aukštis: 226 m

Dabartinis oras

Ataskaita buvo paskelbta 23 minutes, ne 09:50 UTC
Vėjas 2 kt iš Šiaurės Vakarų
Temperatūra -3°C
Drėgmė 100%
Slėgis 1005 hPa
Matomumas 10 km arba daugiau
Su prošvaistėmis ne aukštis 1000 ft

METAR: ESGJ 070950Z 32002KT 9999 BKN010 M03/M03 Q1005

Laikas: 11:13 (10:13 UTC)

Prognozė

Ataskaita buvo paskelbta 1 valandą ir 43 minutes, ne 08:30 UTC
Prognozė galioja nuo 07 metu 09 UTC su 07 metu 18 UTC
Vėjas 5 kt iš Šiaurės
Matomumas 10 km arba daugiau
Su prošvaistėmis ne aukštis 1500 ft
Laikinai
nuo 07 metu 09 UTC su 07 metu 13 UTC
Matomumas: 4000 m
Su prošvaistėmis ne aukštis 600 ft
sniegas
Tikimybė 40%
nuo 07 metu 13 UTC su 07 metu 18 UTC
Matomumas: 4000 m
ne aukštis 1000 ft
sniegas

TAF: ESGJ 070830Z 0709/0718 35005KT 9999 BKN015 TEMPO 0709/0713 4000 -SN BKN006 PROB40 0713/0718 4000 -SN VV010

Orai ataskaitas ir orų prognozės (METAR, TAF).

turimą stotys yra geltonos ir raudonos taškus žemėlapyje.

Perkelti pele per norėdami pamatyti stoties vardą.

Tada spustelėkite, norėdami matyti oro stebėjimo ir prognozės.

Norėdami pakeisti žemėlapį: spustelėkite ant žalios mygtukų su juodo kryžiaus žemyn,; žalią mygtuką su brūkšneliu, jei norite nutolinti; arba žalių rodyklių gretimoms žemėlapius.


METAR-TAF: